createdAt,value
2019-05-11T00:00:59.270Z,1008.13
2019-05-11T00:01:59.290Z,1008.11
2019-05-11T00:02:59.317Z,1008.06
2019-05-11T00:03:59.328Z,1008.09
2019-05-11T00:04:59.348Z,1008.09
2019-05-11T00:05:59.367Z,1008.13
2019-05-11T00:06:59.386Z,1008.13
2019-05-11T00:07:59.406Z,1008.2
2019-05-11T00:08:59.426Z,1008.2
2019-05-11T00:10:59.464Z,1008.23
2019-05-11T00:11:59.483Z,1008.25
2019-05-11T00:12:59.513Z,1008.16
2019-05-11T00:13:59.522Z,1008.2
2019-05-11T00:14:59.545Z,1008.14
2019-05-11T00:15:59.560Z,1008.17
2019-05-11T00:16:59.579Z,1008.2
2019-05-11T00:17:59.632Z,1008.21
2019-05-11T00:18:59.617Z,1008.2
2019-05-11T00:19:59.638Z,1008.26
2019-05-11T00:20:59.706Z,1008.19
2019-05-11T00:21:59.689Z,1008.23
2019-05-11T00:22:59.694Z,1008.27
2019-05-11T00:23:59.713Z,1008.26
2019-05-11T00:24:59.732Z,1008.28
2019-05-11T00:25:59.752Z,1008.31
2019-05-11T00:26:59.770Z,1008.33
2019-05-11T00:27:59.795Z,1008.29
2019-05-11T00:28:59.809Z,1008.27
2019-05-11T00:29:59.827Z,1008.2
2019-05-11T00:30:59.846Z,1008.18
2019-05-11T00:31:59.869Z,1008.17
2019-05-11T00:32:59.886Z,1008.14
2019-05-11T00:33:59.903Z,1008.14
2019-05-11T00:34:59.924Z,1008.15
2019-05-11T00:35:59.942Z,1008.13
2019-05-11T00:36:59.961Z,1008.12
2019-05-11T00:37:59.980Z,1008.16
2019-05-11T00:39:00.022Z,1008.17
2019-05-11T00:40:13.161Z,1008.22
2019-05-11T00:41:00.037Z,1008.22
2019-05-11T00:43:00.076Z,1008.26
2019-05-11T00:44:00.094Z,1008.19
2019-05-11T00:45:00.114Z,1008.14
2019-05-11T00:46:00.132Z,1008.12
2019-05-11T00:47:00.151Z,1008.1
2019-05-11T00:48:00.170Z,1008.05
2019-05-11T00:49:00.189Z,1008.02
2019-05-11T00:50:00.208Z,1008
2019-05-11T00:51:00.227Z,1008.04
2019-05-11T00:52:00.245Z,1008.1
2019-05-11T00:53:00.265Z,1008.05
2019-05-11T00:54:00.284Z,1008.04
2019-05-11T00:55:00.305Z,1008.04
2019-05-11T00:56:00.321Z,1008.05
2019-05-11T00:57:00.340Z,1008.02
2019-05-11T00:59:00.379Z,1008.01
2019-05-11T01:00:00.398Z,1008
2019-05-11T01:01:00.425Z,1008.03
2019-05-11T01:02:00.436Z,1008.02
2019-05-11T01:03:00.454Z,1008.07
2019-05-11T01:04:00.473Z,1008.05
2019-05-11T01:05:00.507Z,1008.05
2019-05-11T01:06:00.542Z,1007.99
2019-05-11T01:07:00.529Z,1008.03
2019-05-11T01:08:00.550Z,1008.01
2019-05-11T01:09:00.668Z,1007.98
2019-05-11T01:10:00.587Z,1007.96
2019-05-11T01:11:00.605Z,1007.9
2019-05-11T01:12:00.624Z,1007.88
2019-05-11T01:13:00.645Z,1007.82
2019-05-11T01:15:00.683Z,1007.81
2019-05-11T01:16:00.701Z,1007.81
2019-05-11T01:17:00.719Z,1007.78
2019-05-11T01:18:00.737Z,1007.75
2019-05-11T01:19:00.756Z,1007.77
2019-05-11T01:20:00.775Z,1007.74
2019-05-11T01:21:00.794Z,1007.75
2019-05-11T01:22:00.813Z,1007.73
2019-05-11T01:23:00.833Z,1007.74
2019-05-11T01:24:00.850Z,1007.76
2019-05-11T01:25:00.868Z,1007.77
2019-05-11T01:26:00.887Z,1007.8
2019-05-11T01:27:00.908Z,1007.78
2019-05-11T01:28:00.926Z,1007.8
2019-05-11T01:29:00.943Z,1007.72
2019-05-11T01:31:00.981Z,1007.75
2019-05-11T01:32:01.000Z,1007.75
2019-05-11T01:33:01.018Z,1007.76
2019-05-11T01:34:01.037Z,1007.74
2019-05-11T01:35:01.056Z,1007.78
2019-05-11T01:36:01.074Z,1007.79
2019-05-11T01:37:01.093Z,1007.79
2019-05-11T01:38:01.111Z,1007.81
2019-05-11T01:39:01.132Z,1007.83
2019-05-11T01:40:01.148Z,1007.88
2019-05-11T01:41:01.167Z,1007.87
2019-05-11T01:42:01.186Z,1007.88
2019-05-11T01:43:01.205Z,1007.87
2019-05-11T01:44:01.225Z,1007.85
2019-05-11T01:46:01.266Z,1007.81
2019-05-11T01:47:01.280Z,1007.82
2019-05-11T01:48:01.301Z,1007.87
2019-05-11T01:49:01.317Z,1007.86
2019-05-11T01:50:01.339Z,1007.85
2019-05-11T01:51:01.394Z,1007.87
2019-05-11T01:52:01.375Z,1007.84
2019-05-11T01:53:01.398Z,1007.83
2019-05-11T01:54:01.409Z,1007.85
2019-05-11T01:55:01.428Z,1007.81
2019-05-11T01:56:01.447Z,1007.8
2019-05-11T01:57:01.466Z,1007.78
2019-05-11T01:58:01.484Z,1007.77
2019-05-11T01:59:01.503Z,1007.77
2019-05-11T02:00:01.522Z,1007.79
2019-05-11T02:01:01.542Z,1007.77
2019-05-11T02:02:01.558Z,1007.71
2019-05-11T02:03:01.577Z,1007.68
2019-05-11T02:04:01.596Z,1007.64
2019-05-11T02:05:01.619Z,1007.67
2019-05-11T02:06:01.637Z,1007.63
2019-05-11T02:07:01.670Z,1007.66
2019-05-11T02:08:01.669Z,1007.61
2019-05-11T02:09:01.693Z,1007.6
2019-05-11T02:10:01.705Z,1007.59
2019-05-11T02:11:14.806Z,1007.53
2019-05-11T02:12:01.743Z,1007.59
2019-05-11T02:13:01.762Z,1007.58
2019-05-11T02:14:01.779Z,1007.58
2019-05-11T02:15:01.799Z,1007.59
2019-05-11T02:16:01.823Z,1007.58
2019-05-11T02:18:01.858Z,1007.5
2019-05-11T02:19:01.870Z,1007.49
2019-05-11T02:20:01.901Z,1007.46
2019-05-11T02:21:01.907Z,1007.49
2019-05-11T02:22:01.986Z,1007.44
2019-05-11T02:23:01.944Z,1007.42
2019-05-11T02:24:01.962Z,1007.4
2019-05-11T02:25:01.980Z,1007.35
2019-05-11T02:26:02.002Z,1007.41
2019-05-11T02:27:02.016Z,1007.39
2019-05-11T02:28:02.035Z,1007.38
2019-05-11T02:29:02.053Z,1007.38
2019-05-11T02:30:02.075Z,1007.36
2019-05-11T02:31:02.091Z,1007.42
2019-05-11T02:32:02.107Z,1007.44
2019-05-11T02:34:02.145Z,1007.45
2019-05-11T02:35:02.166Z,1007.41
2019-05-11T02:36:02.181Z,1007.34
2019-05-11T02:37:02.200Z,1007.3
2019-05-11T02:38:02.217Z,1007.28
2019-05-11T02:39:02.237Z,1007.29
2019-05-11T02:40:02.253Z,1007.31
2019-05-11T02:41:02.271Z,1007.34
2019-05-11T02:42:02.290Z,1007.37
2019-05-11T02:43:02.311Z,1007.41
2019-05-11T02:44:02.325Z,1007.43
2019-05-11T02:45:02.343Z,1007.45
2019-05-11T02:46:02.362Z,1007.47
2019-05-11T02:47:02.379Z,1007.46
2019-05-11T02:48:02.403Z,1007.48
2019-05-11T02:50:02.434Z,1007.45
2019-05-11T02:51:02.451Z,1007.44
2019-05-11T02:52:02.472Z,1007.42
2019-05-11T02:53:02.487Z,1007.43
2019-05-11T02:54:02.624Z,1007.46
2019-05-11T02:55:02.525Z,1007.44
2019-05-11T02:56:02.542Z,1007.49
2019-05-11T02:57:02.558Z,1007.47
2019-05-11T02:58:02.578Z,1007.47
2019-05-11T02:59:02.599Z,1007.52
2019-05-11T03:00:02.634Z,1007.53
2019-05-11T03:01:02.631Z,1007.54
2019-05-11T03:02:02.650Z,1007.57
2019-05-11T03:03:02.667Z,1007.63
2019-05-11T03:04:02.684Z,1007.64
2019-05-11T03:06:02.722Z,1007.7
2019-05-11T03:07:02.744Z,1007.68
2019-05-11T03:08:02.772Z,1007.67
2019-05-11T03:09:02.776Z,1007.71
2019-05-11T03:10:02.793Z,1007.69
2019-05-11T03:11:02.810Z,1007.72
2019-05-11T03:12:02.828Z,1007.7
2019-05-11T03:13:02.849Z,1007.74
2019-05-11T03:14:02.866Z,1007.72
2019-05-11T03:15:02.896Z,1007.68
2019-05-11T03:16:02.900Z,1007.7
2019-05-11T03:17:02.920Z,1007.7
2019-05-11T03:18:02.937Z,1007.7
2019-05-11T03:19:02.955Z,1007.73
2019-05-11T03:21:02.996Z,1007.74
2019-05-11T03:22:03.009Z,1007.75
2019-05-11T03:23:03.026Z,1007.75
2019-05-11T03:24:03.045Z,1007.76
2019-05-11T03:25:03.064Z,1007.74
2019-05-11T03:26:03.081Z,1007.79
2019-05-11T03:27:03.099Z,1007.8
2019-05-11T03:28:03.133Z,1007.81
2019-05-11T03:29:03.134Z,1007.83
2019-05-11T03:30:03.152Z,1007.83
2019-05-11T03:31:03.175Z,1007.81
2019-05-11T03:32:03.189Z,1007.88
2019-05-11T03:33:03.242Z,1007.9
2019-05-11T03:34:03.223Z,1007.91
2019-05-11T03:35:03.290Z,1007.97
2019-05-11T03:36:03.262Z,1008
2019-05-11T03:37:03.285Z,1007.97
2019-05-11T03:38:03.295Z,1007.98
2019-05-11T03:39:03.313Z,1007.92
2019-05-11T03:40:03.330Z,1007.96
2019-05-11T03:41:03.352Z,1007.94
2019-05-11T03:42:13.615Z,1007.96
2019-05-11T03:43:03.386Z,1007.95
2019-05-11T03:44:03.403Z,1007.94
2019-05-11T03:45:03.429Z,1007.95
2019-05-11T03:46:03.439Z,1007.99
2019-05-11T03:47:03.463Z,1007.98
2019-05-11T03:48:03.473Z,1007.99
2019-05-11T03:49:03.496Z,1007.99
2019-05-11T03:50:03.510Z,1007.96
2019-05-11T03:51:03.559Z,1008
2019-05-11T03:53:03.565Z,1007.99
2019-05-11T03:54:03.583Z,1007.95
2019-05-11T03:55:03.599Z,1007.92
2019-05-11T03:56:03.622Z,1007.96
2019-05-11T03:57:03.640Z,1007.93
2019-05-11T03:58:03.655Z,1007.95
2019-05-11T03:59:03.672Z,1007.99
2019-05-11T04:00:03.691Z,1007.96
2019-05-11T04:01:03.709Z,1007.97
2019-05-11T04:02:03.728Z,1007.96
2019-05-11T04:03:03.746Z,1007.95
2019-05-11T04:04:03.763Z,1007.99
2019-05-11T04:05:03.781Z,1007.99
2019-05-11T04:06:03.797Z,1008.02
2019-05-11T04:07:03.815Z,1008.03
2019-05-11T04:09:03.852Z,1008.07
2019-05-11T04:10:03.929Z,1008.08
2019-05-11T04:11:03.887Z,1008.08
2019-05-11T04:12:03.908Z,1008.1
2019-05-11T04:13:03.924Z,1008.13
2019-05-11T04:14:03.947Z,1008.12
2019-05-11T04:15:03.963Z,1008.12
2019-05-11T04:16:03.978Z,1008.14
2019-05-11T04:17:03.997Z,1008.12
2019-05-11T04:18:04.013Z,1008.1
2019-05-11T04:19:04.031Z,1008.14
2019-05-11T04:20:04.050Z,1008.1
2019-05-11T04:21:04.068Z,1008.12
2019-05-11T04:22:04.086Z,1008.14
2019-05-11T04:23:04.104Z,1008.09
2019-05-11T04:25:04.139Z,1008.05
2019-05-11T04:26:04.158Z,1008.09
2019-05-11T04:27:04.176Z,1008.09
2019-05-11T04:28:04.194Z,1008.09
2019-05-11T04:29:04.213Z,1008.13
2019-05-11T04:30:04.230Z,1008.12
2019-05-11T04:31:04.250Z,1008.08
2019-05-11T04:32:04.265Z,1008.06
2019-05-11T04:33:04.290Z,1008.05
2019-05-11T04:34:04.301Z,1008.07
2019-05-11T04:35:04.322Z,1008.09
2019-05-11T04:36:04.339Z,1008.08
2019-05-11T04:37:04.361Z,1008.06
2019-05-11T04:38:04.375Z,1008.08
2019-05-11T04:39:04.392Z,1008.13
2019-05-11T04:41:04.434Z,1008.11
2019-05-11T04:42:04.447Z,1008.13
2019-05-11T04:43:04.465Z,1008.08
2019-05-11T04:44:04.484Z,1008.1
2019-05-11T04:45:04.502Z,1008.03
2019-05-11T04:46:04.522Z,1008.06
2019-05-11T04:47:04.539Z,1008.01
2019-05-11T04:48:04.556Z,1008.02
2019-05-11T04:49:04.578Z,1007.99
2019-05-11T04:50:04.595Z,1008.06
2019-05-11T04:51:04.611Z,1008.02
2019-05-11T04:52:04.630Z,1007.99
2019-05-11T04:53:04.647Z,1007.98
2019-05-11T04:54:04.670Z,1007.97
2019-05-11T04:56:04.704Z,1008.01
2019-05-11T04:57:04.722Z,1007.99
2019-05-11T04:58:04.742Z,1008.02
2019-05-11T04:59:04.760Z,1008.03
2019-05-11T05:00:04.788Z,1008.07
2019-05-11T05:01:04.795Z,1008.05
2019-05-11T05:02:04.817Z,1008.03
2019-05-11T05:03:04.833Z,1008.05
2019-05-11T05:04:13.633Z,1008.05
2019-05-11T05:05:04.870Z,1008.08
2019-05-11T05:06:21.988Z,1008.1
2019-05-11T05:07:05.346Z,1008.13
2019-05-11T05:08:09.414Z,1008.16
2019-05-11T05:09:05.119Z,1008.17
2019-05-11T05:10:04.965Z,1008.17
2019-05-11T05:11:04.984Z,1008.22
2019-05-11T05:12:08.311Z,1008.17
2019-05-11T05:13:10.447Z,1008.18
2019-05-11T05:14:07.983Z,1008.14
2019-05-11T05:15:05.059Z,1008.11
2019-05-11T05:16:05.079Z,1008.12
2019-05-11T05:17:05.099Z,1008.07
2019-05-11T05:18:05.118Z,1008.07
2019-05-11T05:19:05.141Z,1008.09
2019-05-11T05:20:05.156Z,1008.13
2019-05-11T05:21:05.176Z,1008.11
2019-05-11T05:22:05.196Z,1008.12
2019-05-11T05:23:05.216Z,1008.14
2019-05-11T05:24:05.235Z,1008.37
2019-05-11T05:25:05.256Z,1008.5
2019-05-11T05:26:05.275Z,1008.42
2019-05-11T05:28:05.316Z,1008.26
2019-05-11T05:29:05.344Z,1008.19
2019-05-11T05:30:05.391Z,1008.22
2019-05-11T05:31:05.379Z,1008.23
2019-05-11T05:32:05.401Z,1008.23
2019-05-11T05:33:05.422Z,1008.28
2019-05-11T05:34:05.443Z,1008.24
2019-05-11T05:35:05.464Z,1008.26
2019-05-11T05:36:05.487Z,1008.27
2019-05-11T05:37:05.507Z,1008.68
2019-05-11T05:38:05.529Z,1008.33
2019-05-11T05:39:08.512Z,1008.28
2019-05-11T05:40:05.573Z,1008.28
2019-05-11T05:41:05.594Z,1008.27
2019-05-11T05:42:05.616Z,1008.29
2019-05-11T05:44:05.661Z,1008.36
2019-05-11T05:45:05.682Z,1008.52
2019-05-11T05:46:05.708Z,1008.59
2019-05-11T05:47:05.727Z,1008.7
2019-05-11T05:48:05.770Z,1008.65
2019-05-11T05:49:05.771Z,1008.54
2019-05-11T05:50:05.801Z,1008.4
2019-05-11T05:51:05.819Z,1008.38
2019-05-11T05:52:06.211Z,1008.41
2019-05-11T05:53:05.866Z,1008.43
2019-05-11T05:54:05.888Z,1008.34
2019-05-11T05:55:05.911Z,1008.31
2019-05-11T05:56:05.934Z,1008.37
2019-05-11T05:57:05.958Z,1008.37
2019-05-11T05:58:05.982Z,1008.35
2019-05-11T06:00:06.032Z,1008.49
2019-05-11T06:01:09.688Z,1008.57
2019-05-11T06:02:06.076Z,1008.61
2019-05-11T06:03:06.102Z,1008.48
2019-05-11T06:04:06.125Z,1008.42
2019-05-11T06:05:06.147Z,1008.5
2019-05-11T06:06:06.172Z,1008.57
2019-05-11T06:07:06.195Z,1008.62
2019-05-11T06:08:06.219Z,1008.72
2019-05-11T06:09:06.249Z,1008.8
2019-05-11T06:10:06.267Z,1008.65
2019-05-11T06:11:06.291Z,1008.57
2019-05-11T06:12:06.316Z,1008.62
2019-05-11T06:13:06.340Z,1008.62
2019-05-11T06:14:06.364Z,1008.78
2019-05-11T06:16:06.415Z,1008.82
2019-05-11T06:17:06.439Z,1008.42
2019-05-11T06:18:06.463Z,1008.63
2019-05-11T06:19:06.489Z,1008.5
2019-05-11T06:20:06.817Z,1008.47
2019-05-11T06:21:06.538Z,1008.47
2019-05-11T06:22:06.563Z,1008.65
2019-05-11T06:23:06.589Z,1009.09
2019-05-11T06:24:08.229Z,1008.84
2019-05-11T06:25:06.643Z,1008.56
2019-05-11T06:26:06.663Z,1008.59
2019-05-11T06:27:06.688Z,1008.67
2019-05-11T06:28:06.713Z,1008.83
2019-05-11T06:29:06.742Z,1008.85
2019-05-11T06:31:06.789Z,1008.86
2019-05-11T06:32:06.814Z,1008.82
2019-05-11T06:33:06.839Z,1008.93
2019-05-11T06:34:06.865Z,1009.37
2019-05-11T06:35:06.891Z,1008.69
2019-05-11T06:36:06.915Z,1009.27
2019-05-11T06:37:06.940Z,1008.97
2019-05-11T06:38:06.966Z,1009.47
2019-05-11T06:39:06.991Z,1009.26
2019-05-11T06:40:07.019Z,1009.37
2019-05-11T06:41:07.046Z,1009.12
2019-05-11T06:42:07.070Z,1009.61
2019-05-11T06:43:07.096Z,1009.32
2019-05-11T06:44:07.123Z,1009.55
2019-05-11T06:45:07.151Z,1009.63
2019-05-11T06:46:07.185Z,1009.49
2019-05-11T06:47:07.204Z,1009.25
2019-05-11T06:48:07.237Z,1009.11
2019-05-11T06:49:07.261Z,1009.01
2019-05-11T06:50:07.291Z,1009.04
2019-05-11T06:51:07.317Z,1008.96
2019-05-11T06:52:07.348Z,1008.96
2019-05-11T06:53:07.375Z,1008.89
2019-05-11T06:54:07.403Z,1008.98
2019-05-11T06:55:07.432Z,1008.93
2019-05-11T06:56:07.462Z,1008.95
2019-05-11T06:57:07.491Z,1008.95
2019-05-11T06:58:07.521Z,1009.01
2019-05-11T06:59:07.550Z,1009
2019-05-11T07:00:07.681Z,1008.98
2019-05-11T07:01:07.610Z,1009.01
2019-05-11T07:03:07.675Z,1008.99
2019-05-11T07:04:07.708Z,1009.07
2019-05-11T07:05:07.742Z,1009.02
2019-05-11T07:06:07.763Z,1008.97
2019-05-11T07:07:07.794Z,1008.91
2019-05-11T07:08:07.825Z,1008.88
2019-05-11T07:09:07.858Z,1008.91
2019-05-11T07:10:07.886Z,1008.91
2019-05-11T07:11:07.917Z,1008.9
2019-05-11T07:12:08.060Z,1008.98
2019-05-11T07:13:07.980Z,1009.09
2019-05-11T07:14:19.644Z,1009.37
2019-05-11T07:15:08.041Z,1009.43
2019-05-11T07:16:08.072Z,1009.45
2019-05-11T07:17:08.103Z,1009.41
2019-05-11T07:19:08.168Z,1009.32
2019-05-11T07:20:08.198Z,1009.24
2019-05-11T07:21:08.226Z,1009.24
2019-05-11T07:22:08.257Z,1009.2
2019-05-11T07:23:08.289Z,1009.23
2019-05-11T07:24:08.320Z,1009.21
2019-05-11T07:25:08.352Z,1009.17
2019-05-11T07:26:08.382Z,1009.17
2019-05-11T07:27:08.410Z,1009.21
2019-05-11T07:28:08.445Z,1009.16
2019-05-11T07:29:08.477Z,1009.17
2019-05-11T07:30:08.505Z,1009.15
2019-05-11T07:31:08.540Z,1009.16
2019-05-11T07:32:19.544Z,1009.12
2019-05-11T07:33:08.597Z,1009.12
2019-05-11T07:35:08.775Z,1009.07
2019-05-11T07:36:08.689Z,1009.02
2019-05-11T07:37:08.720Z,1008.91
2019-05-11T07:38:08.752Z,1009.04
2019-05-11T07:39:08.781Z,1009.03
2019-05-11T07:40:08.819Z,1008.79
2019-05-11T07:41:08.914Z,1008.85
2019-05-11T07:42:08.874Z,1009.05
2019-05-11T07:43:09.760Z,1008.96
2019-05-11T07:44:09.982Z,1008.95
2019-05-11T07:45:09.199Z,1008.94
2019-05-11T07:46:08.998Z,1008.98
2019-05-11T07:47:09.029Z,1009.03
2019-05-11T07:48:09.061Z,1008.94
2019-05-11T07:49:09.091Z,1008.9
2019-05-11T07:51:09.154Z,1008.98
2019-05-11T07:52:09.185Z,1009.01
2019-05-11T07:53:09.214Z,1008.93
2019-05-11T07:54:09.247Z,1008.86
2019-05-11T07:55:09.279Z,1008.91
2019-05-11T07:56:09.308Z,1008.86
2019-05-11T07:57:09.339Z,1008.85
2019-05-11T07:58:09.370Z,1008.86
2019-05-11T07:59:09.402Z,1008.83
2019-05-11T08:00:09.447Z,1008.73
2019-05-11T08:01:09.463Z,1008.55
2019-05-11T08:02:09.495Z,1008.55
2019-05-11T08:03:09.529Z,1008.94
2019-05-11T08:04:09.558Z,1008.95
2019-05-11T08:06:09.619Z,1008.81
2019-05-11T08:07:09.650Z,1008.72
2019-05-11T08:08:09.681Z,1008.63
2019-05-11T08:09:09.712Z,1008.72
2019-05-11T08:10:09.744Z,1008.7
2019-05-11T08:11:09.773Z,1008.74
2019-05-11T08:12:09.804Z,1008.7
2019-05-11T08:13:09.835Z,1008.66
2019-05-11T08:14:09.866Z,1008.62
2019-05-11T08:15:13.490Z,1008.5
2019-05-11T08:16:09.928Z,1008.59
2019-05-11T08:17:09.959Z,1008.54
2019-05-11T08:18:09.995Z,1008.56
2019-05-11T08:19:10.877Z,1008.49
2019-05-11T08:20:10.051Z,1008.46
2019-05-11T08:21:10.083Z,1008.4
2019-05-11T08:22:10.113Z,1008.46
2019-05-11T08:23:10.144Z,1008.49
2019-05-11T08:24:10.175Z,1008.46
2019-05-11T08:25:10.205Z,1008.58
2019-05-11T08:26:10.236Z,1008.62
2019-05-11T08:27:10.267Z,1008.66
2019-05-11T08:28:12.052Z,1008.61
2019-05-11T08:29:10.328Z,1008.73
2019-05-11T08:30:10.358Z,1008.64
2019-05-11T08:31:10.389Z,1008.44
2019-05-11T08:32:10.419Z,1008.52
2019-05-11T08:33:10.456Z,1008.57
2019-05-11T08:34:10.480Z,1008.6
2019-05-11T08:35:10.510Z,1008.35
2019-05-11T08:36:10.551Z,1008.53
2019-05-11T08:38:10.602Z,1008.51
2019-05-11T08:39:10.631Z,1008.52
2019-05-11T08:40:10.661Z,1008.42
2019-05-11T08:41:10.691Z,1008.35
2019-05-11T08:42:10.722Z,1008.36
2019-05-11T08:43:10.753Z,1008.28
2019-05-11T08:44:10.783Z,1008.34
2019-05-11T08:45:19.693Z,1008.23
2019-05-11T08:46:10.844Z,1008.19
2019-05-11T08:47:10.879Z,1008.19
2019-05-11T08:48:10.904Z,1008.19
2019-05-11T08:49:10.940Z,1008.21
2019-05-11T08:50:10.968Z,1008.21
2019-05-11T08:51:10.996Z,1008.18
2019-05-11T08:52:11.026Z,1008.2
2019-05-11T08:54:11.087Z,1008.07
2019-05-11T08:55:11.119Z,1008.12
2019-05-11T08:56:13.250Z,1008.16
2019-05-11T08:57:11.179Z,1008.04
2019-05-11T08:58:11.208Z,1008.04
2019-05-11T08:59:11.239Z,1008.05
2019-05-11T09:00:11.269Z,1008.06
2019-05-11T09:01:11.301Z,1008.04
2019-05-11T09:02:11.329Z,1008
2019-05-11T09:03:11.358Z,1007.95
2019-05-11T09:04:11.388Z,1008.01
2019-05-11T09:05:11.418Z,1008.01
2019-05-11T09:06:11.446Z,1007.96
2019-05-11T09:07:11.476Z,1008.01
2019-05-11T09:08:11.504Z,1007.95
2019-05-11T09:10:11.559Z,1007.93
2019-05-11T09:11:11.589Z,1007.93
2019-05-11T09:12:11.616Z,1007.9
2019-05-11T09:13:11.643Z,1007.89
2019-05-11T09:14:11.671Z,1007.86
2019-05-11T09:15:11.699Z,1007.84
2019-05-11T09:16:11.726Z,1007.92
2019-05-11T09:17:11.752Z,1007.87
2019-05-11T09:18:11.780Z,1007.89
2019-05-11T09:19:11.807Z,1007.87
2019-05-11T09:20:11.834Z,1007.86
2019-05-11T09:21:11.860Z,1007.89
2019-05-11T09:22:11.890Z,1007.9
2019-05-11T09:23:11.914Z,1007.87
2019-05-11T09:24:11.941Z,1007.88
2019-05-11T09:26:11.992Z,1007.82
2019-05-11T09:27:12.019Z,1007.87
2019-05-11T09:28:12.044Z,1007.88
2019-05-11T09:29:12.075Z,1007.87
2019-05-11T09:30:12.097Z,1007.89
2019-05-11T09:31:12.122Z,1007.86
2019-05-11T09:32:12.148Z,1007.87
2019-05-11T09:33:12.175Z,1007.89
2019-05-11T09:34:12.201Z,1007.9
2019-05-11T09:35:12.226Z,1007.94
2019-05-11T09:36:12.282Z,1007.91
2019-05-11T09:37:12.287Z,1007.96
2019-05-11T09:38:12.304Z,1007.96
2019-05-11T09:39:12.330Z,1007.9
2019-05-11T09:41:12.383Z,1007.89
2019-05-11T09:42:12.408Z,1007.89
2019-05-11T09:43:12.434Z,1007.83
2019-05-11T09:44:12.461Z,1007.91
2019-05-11T09:45:12.487Z,1007.87
2019-05-11T09:46:12.512Z,1007.87
2019-05-11T09:47:12.537Z,1007.82
2019-05-11T09:48:12.564Z,1007.87
2019-05-11T09:49:12.592Z,1007.92
2019-05-11T09:50:12.615Z,1007.86
2019-05-11T09:51:12.640Z,1007.9
2019-05-11T09:52:12.666Z,1007.9
2019-05-11T09:53:12.697Z,1007.92
2019-05-11T09:54:12.717Z,1007.9
2019-05-11T09:55:12.743Z,1007.89
2019-05-11T09:56:12.769Z,1007.86
2019-05-11T09:57:12.794Z,1007.84
2019-05-11T09:58:12.819Z,1007.88
2019-05-11T09:59:12.845Z,1007.89
2019-05-11T10:00:12.870Z,1007.84
2019-05-11T10:01:12.895Z,1007.81
2019-05-11T10:02:12.921Z,1007.85
2019-05-11T10:03:12.951Z,1007.78
2019-05-11T10:04:12.971Z,1007.79
2019-05-11T10:05:13.002Z,1007.8
2019-05-11T10:06:13.022Z,1007.82
2019-05-11T10:07:13.048Z,1007.81
2019-05-11T10:08:13.073Z,1007.82
2019-05-11T10:09:13.098Z,1007.83
2019-05-11T10:10:13.124Z,1007.8
2019-05-11T10:11:13.148Z,1007.83
2019-05-11T10:13:13.199Z,1007.84
2019-05-11T10:14:13.225Z,1007.83
2019-05-11T10:15:13.249Z,1007.87
2019-05-11T10:16:13.274Z,1007.84
2019-05-11T10:17:13.299Z,1007.86
2019-05-11T10:18:13.325Z,1007.87
2019-05-11T10:19:13.349Z,1007.84
2019-05-11T10:20:13.375Z,1007.85
2019-05-11T10:21:13.400Z,1007.83
2019-05-11T10:22:13.424Z,1007.88
2019-05-11T10:23:13.450Z,1007.82
2019-05-11T10:24:13.474Z,1007.84
2019-05-11T10:25:13.499Z,1007.85
2019-05-11T10:26:13.524Z,1007.84
2019-05-11T10:27:13.549Z,1007.84
2019-05-11T10:29:13.601Z,1007.84
2019-05-11T10:30:13.628Z,1007.81
2019-05-11T10:31:13.648Z,1007.8
2019-05-11T10:32:13.674Z,1007.82
2019-05-11T10:33:13.698Z,1007.82
2019-05-11T10:34:13.723Z,1007.8
2019-05-11T10:35:13.750Z,1007.8
2019-05-11T10:36:13.773Z,1007.77
2019-05-11T10:37:13.797Z,1007.84
2019-05-11T10:38:13.823Z,1007.84
2019-05-11T10:39:13.847Z,1007.8
2019-05-11T10:40:13.872Z,1007.81
2019-05-11T10:41:13.897Z,1007.81
2019-05-11T10:42:13.922Z,1007.83
2019-05-11T10:43:13.947Z,1007.81
2019-05-11T10:45:13.997Z,1007.81
2019-05-11T10:46:19.030Z,1007.78
2019-05-11T10:47:14.046Z,1007.86
2019-05-11T10:48:14.070Z,1007.87
2019-05-11T10:49:14.094Z,1007.82
2019-05-11T10:50:14.119Z,1007.85
2019-05-11T10:51:14.144Z,1007.84
2019-05-11T10:52:14.169Z,1007.82
2019-05-11T10:53:14.208Z,1007.84
2019-05-11T10:54:14.220Z,1007.81
2019-05-11T10:55:14.257Z,1007.77
2019-05-11T10:56:14.268Z,1007.76
2019-05-11T10:57:14.292Z,1007.77
2019-05-11T10:58:14.317Z,1007.81
2019-05-11T10:59:15.626Z,1007.82
2019-05-11T11:01:14.391Z,1007.79
2019-05-11T11:02:14.416Z,1007.83
2019-05-11T11:03:14.441Z,1007.8
2019-05-11T11:04:14.465Z,1007.77
2019-05-11T11:05:14.490Z,1007.8
2019-05-11T11:06:14.514Z,1007.79
2019-05-11T11:07:17.035Z,1007.77
2019-05-11T11:08:14.563Z,1007.78
2019-05-11T11:09:14.589Z,1007.73
2019-05-11T11:10:14.613Z,1007.7
2019-05-11T11:11:14.638Z,1007.69
2019-05-11T11:12:14.663Z,1007.75
2019-05-11T11:13:14.687Z,1007.73
2019-05-11T11:14:14.712Z,1007.7
2019-05-11T11:16:14.762Z,1007.67
2019-05-11T11:17:14.786Z,1007.73
2019-05-11T11:18:14.811Z,1007.67
2019-05-11T11:19:14.836Z,1007.7
2019-05-11T11:20:14.861Z,1007.72
2019-05-11T11:21:14.894Z,1007.67
2019-05-11T11:22:33.160Z,1007.72
2019-05-11T11:23:14.935Z,1007.73
2019-05-11T11:24:14.959Z,1007.76
2019-05-11T11:25:14.985Z,1007.78
2019-05-11T11:26:15.009Z,1007.77
2019-05-11T11:27:15.035Z,1007.83
2019-05-11T11:28:15.058Z,1007.78
2019-05-11T11:29:15.085Z,1007.78
2019-05-11T11:30:15.110Z,1007.75
2019-05-11T11:31:15.135Z,1007.75
2019-05-11T11:32:15.158Z,1007.77
2019-05-11T11:33:15.183Z,1007.71
2019-05-11T11:34:15.207Z,1007.75
2019-05-11T11:35:15.232Z,1007.73
2019-05-11T11:36:15.257Z,1007.71
2019-05-11T11:37:17.223Z,1007.71
2019-05-11T11:38:15.307Z,1007.71
2019-05-11T11:39:15.330Z,1007.7
2019-05-11T11:40:17.508Z,1007.66
2019-05-11T11:41:15.380Z,1007.66
2019-05-11T11:42:17.665Z,1007.68
2019-05-11T11:43:17.867Z,1007.68
2019-05-11T11:44:15.454Z,1007.66
2019-05-11T11:45:15.479Z,1007.72
2019-05-11T11:46:15.504Z,1007.67
2019-05-11T11:48:15.553Z,1007.68
2019-05-11T11:49:15.578Z,1007.65
2019-05-11T11:50:17.549Z,1007.7
2019-05-11T11:51:15.656Z,1007.71
2019-05-11T11:52:15.651Z,1007.67
2019-05-11T11:53:15.676Z,1007.67
2019-05-11T11:54:17.938Z,1007.68
2019-05-11T11:55:15.735Z,1007.67
2019-05-11T11:56:15.750Z,1007.66
2019-05-11T11:57:18.038Z,1007.65
2019-05-11T11:58:20.757Z,1007.67
2019-05-11T11:59:17.744Z,1007.62
2019-05-11T12:00:18.015Z,1007.68
2019-05-11T12:01:18.545Z,1007.68
2019-05-11T12:02:15.898Z,1007.67
2019-05-11T12:04:15.947Z,1007.73
2019-05-11T12:05:17.624Z,1007.68
2019-05-11T12:06:18.131Z,1007.69
2019-05-11T12:07:17.907Z,1007.68
2019-05-11T12:08:16.043Z,1007.64
2019-05-11T12:09:18.135Z,1007.68
2019-05-11T12:10:18.188Z,1007.64
2019-05-11T12:11:18.517Z,1007.67
2019-05-11T12:12:18.423Z,1007.67
2019-05-11T12:13:16.169Z,1007.69
2019-05-11T12:14:18.488Z,1007.67
2019-05-11T12:15:17.741Z,1007.66
2019-05-11T12:16:17.957Z,1007.63
2019-05-11T12:17:18.156Z,1007.7
2019-05-11T12:18:18.314Z,1007.67
2019-05-11T12:20:18.015Z,1007.7
2019-05-11T12:21:18.437Z,1007.71
2019-05-11T12:22:18.587Z,1007.72
2019-05-11T12:23:17.942Z,1007.68
2019-05-11T12:24:18.535Z,1007.68
2019-05-11T12:25:18.485Z,1007.64
2019-05-11T12:26:17.696Z,1007.69
2019-05-11T12:27:18.217Z,1007.69
2019-05-11T12:28:18.353Z,1007.74
2019-05-11T12:29:18.537Z,1007.66
2019-05-11T12:30:17.761Z,1007.66
2019-05-11T12:31:18.326Z,1007.7
2019-05-11T12:32:18.509Z,1007.71
2019-05-11T12:33:18.623Z,1007.67
2019-05-11T12:34:17.870Z,1007.69
2019-05-11T12:36:18.676Z,1007.69
2019-05-11T12:37:17.873Z,1007.7
2019-05-11T12:38:18.291Z,1007.69
2019-05-11T12:39:18.861Z,1007.65
2019-05-11T12:40:17.938Z,1007.68
2019-05-11T12:41:18.917Z,1007.64
2019-05-11T12:42:17.898Z,1007.66
2019-05-11T12:43:18.523Z,1007.63
2019-05-11T12:44:18.740Z,1007.66
2019-05-11T12:45:18.153Z,1007.69
2019-05-11T12:46:18.812Z,1007.72
2019-05-11T12:47:21.991Z,1007.73
2019-05-11T12:48:18.036Z,1007.7
2019-05-11T12:49:18.601Z,1007.7